Time;durP1;ratioP1;P1;durP2;ratioP2;P2;SDS_P1;SDS_P2;PMS_P1;PMS_P2;Temp;Humidity;BMP_temperature;BMP_pressure;BME280_temperature;BME280_humidity;BME280_pressure;Samples;Min_cycle;Max_cycle;Signal;HPM_P1;HPM_P2
2022/06/24 00:02:12;;;;;;;5.45;2.53;;;20.90;90.00;;;;;;4961813;28;20046;-84
2022/06/24 00:04:38;;;;;;;3.45;2.50;;;21.00;90.40;;;;;;4963691;28;20107;-84
2022/06/24 00:07:16;;;;;;;4.60;2.25;;;21.00;90.20;;;;;;4980491;28;20089;-84
2022/06/24 00:09:44;;;;;;;5.50;2.25;;;20.70;90.50;;;;;;4965163;28;20054;-84
2022/06/24 00:12:12;;;;;;;4.82;2.25;;;20.60;90.60;;;;;;4964500;28;20533;-84
2022/06/24 00:14:39;;;;;;;3.90;2.53;;;20.50;90.80;;;;;;4981022;28;20553;-84
2022/06/24 00:17:11;;;;;;;3.40;2.03;;;20.50;91.40;;;;;;4961775;28;20053;-84
2022/06/24 00:19:53;;;;;;;4.03;2.35;;;20.40;91.90;;;;;;4974806;28;20906;-84
2022/06/24 00:22:19;;;;;;;4.03;2.00;;;20.30;92.10;;;;;;4966191;28;20468;-84
2022/06/24 00:24:46;;;;;;;3.60;2.20;;;20.30;92.20;;;;;;4979588;28;20071;-84
2022/06/24 00:27:22;;;;;;;4.93;2.30;;;20.30;92.50;;;;;;4963348;28;20111;-84
2022/06/24 00:29:49;;;;;;;3.50;2.50;;;20.20;92.60;;;;;;4952483;28;20059;-84
2022/06/24 00:32:15;;;;;;;4.32;2.80;;;20.20;92.80;;;;;;4966616;28;20084;-84
2022/06/24 00:34:41;;;;;;;4.55;2.55;;;20.10;92.90;;;;;;4962420;28;20788;-84
2022/06/24 00:37:31;;;;;;;5.25;2.72;;;20.00;92.90;;;;;;4981282;28;20109;-84
2022/06/24 00:40:12;;;;;;;4.20;2.25;;;20.00;93.70;;;;;;4962769;28;20088;-84
2022/06/24 00:42:47;;;;;;;5.03;2.40;;;19.90;93.50;;;;;;4959479;28;20047;-84
2022/06/24 00:45:38;;;;;;;4.88;2.47;;;19.90;93.70;;;;;;4969716;28;20046;-84
2022/06/24 00:48:18;;;;;;;4.78;2.40;;;19.90;93.80;;;;;;4960291;28;20169;-84
2022/06/24 00:50:46;;;;;;;5.25;2.22;;;19.80;93.80;;;;;;4962216;28;20089;-85
2022/06/24 00:53:13;;;;;;;5.75;2.20;;;19.70;93.90;;;;;;4970843;28;20054;-85
2022/06/24 00:55:41;;;;;;;4.95;2.33;;;19.70;93.90;;;;;;4962437;28;20042;-85
2022/06/24 00:58:18;;;;;;;4.10;2.50;;;19.60;93.90;;;;;;4963456;28;20053;-85
2022/06/24 01:00:47;;;;;;;3.67;2.58;;;19.60;94.20;;;;;;4946289;28;20796;-85
2022/06/24 01:03:14;;;;;;;4.82;2.80;;;19.50;94.30;;;;;;4962186;28;20057;-84
2022/06/24 01:05:41;;;;;;;6.35;2.90;;;19.50;94.40;;;;;;4962761;28;20038;-84
2022/06/24 01:08:09;;;;;;;4.50;2.55;;;19.40;94.70;;;;;;4981386;28;20042;-85
2022/06/24 01:10:36;;;;;;;4.72;2.63;;;19.40;95.00;;;;;;4962810;28;20563;-84
2022/06/24 01:13:02;;;;;;;5.40;2.55;;;19.30;95.40;;;;;;4963027;28;20046;-84
2022/06/24 01:15:28;;;;;;;4.10;2.53;;;19.30;95.90;;;;;;4978558;28;20046;-84
2022/06/24 01:17:54;;;;;;;6.18;2.85;;;19.30;96.30;;;;;;4959744;28;20510;-84
2022/06/24 01:20:19;;;;;;;4.93;2.35;;;19.30;96.40;;;;;;4979401;28;20050;-84
2022/06/24 01:22:45;;;;;;;4.38;2.75;;;19.20;96.10;;;;;;4978868;28;20050;-85
2022/06/24 01:25:11;;;;;;;4.20;2.70;;;19.20;96.10;;;;;;4980317;28;20045;-85
2022/06/24 01:27:38;;;;;;;6.13;2.47;;;19.20;96.60;;;;;;4948481;28;20055;-84
2022/06/24 01:30:06;;;;;;;5.15;2.85;;;19.20;96.30;;;;;;4946639;28;20039;-84
2022/06/24 01:32:33;;;;;;;4.80;2.70;;;19.10;96.40;;;;;;4946495;28;20073;-84
2022/06/24 01:35:02;;;;;;;5.20;2.70;;;19.10;96.70;;;;;;4963699;28;20050;-84
2022/06/24 01:37:31;;;;;;;5.03;2.85;;;19.10;97.00;;;;;;4980299;28;20066;-84
2022/06/24 01:39:57;;;;;;;3.95;2.50;;;19.00;97.30;;;;;;4973222;28;20046;-85
2022/06/24 01:42:22;;;;;;;6.13;2.95;;;19.00;97.60;;;;;;4965498;28;20049;-85
2022/06/24 01:44:48;;;;;;;6.47;2.92;;;19.00;97.50;;;;;;4980302;28;20054;-84
2022/06/24 01:47:14;;;;;;;7.53;2.70;;;18.90;97.50;;;;;;4974833;28;20059;-84
2022/06/24 01:49:39;;;;;;;5.30;2.92;;;18.90;97.40;;;;;;4972181;28;20041;-85
2022/06/24 01:52:05;;;;;;;4.90;2.97;;;19.00;97.60;;;;;;4946512;28;20784;-84
2022/06/24 01:54:32;;;;;;;6.13;2.72;;;18.90;97.70;;;;;;4963376;28;20165;-84
2022/06/24 01:56:58;;;;;;;4.30;2.53;;;18.90;97.80;;;;;;4956898;28;20072;-85
2022/06/24 01:59:24;;;;;;;4.35;2.50;;;18.80;98.10;;;;;;4959080;28;20548;-84
2022/06/24 02:01:49;;;;;;;5.10;2.80;;;18.80;98.50;;;;;;4961510;28;20054;-85
2022/06/24 02:04:15;;;;;;;5.28;2.92;;;18.80;98.50;;;;;;4961136;28;20045;-84
2022/06/24 02:06:41;;;;;;;4.57;2.67;;;18.70;98.90;;;;;;4936751;28;20046;-84
2022/06/24 02:09:07;;;;;;;5.90;2.92;;;18.70;99.00;;;;;;4978062;28;20069;-84
2022/06/24 02:14:18;;;;;;;5.10;2.75;;;18.70;99.40;;;;;;4971204;28;20083;-84
2022/06/24 02:16:45;;;;;;;3.67;2.40;;;18.60;99.50;;;;;;4975204;28;20062;-84
2022/06/24 02:19:10;;;;;;;6.03;2.72;;;18.50;99.50;;;;;;4954595;28;20058;-84
2022/06/24 02:21:36;;;;;;;5.15;2.90;;;18.50;99.70;;;;;;4977870;28;20044;-85
2022/06/24 02:24:03;;;;;;;5.80;2.85;;;18.50;99.80;;;;;;4953263;28;20138;-85
2022/06/24 02:26:28;;;;;;;6.60;3.00;;;18.50;99.90;;;;;;4950780;28;20042;-84
2022/06/24 02:28:54;;;;;;;4.70;2.72;;;18.40;99.90;;;;;;4971628;28;20859;-84
2022/06/24 02:31:20;;;;;;;5.22;3.25;;;18.40;99.90;;;;;;4970165;28;20078;-84
2022/06/24 02:33:49;;;;;;;4.70;2.88;;;18.30;99.90;;;;;;4980239;28;20188;-85
2022/06/24 02:36:15;;;;;;;6.50;2.80;;;18.30;99.90;;;;;;4936488;28;20728;-84
2022/06/24 02:38:41;;;;;;;5.15;3.42;;;18.30;99.90;;;;;;4961379;28;20054;-84
2022/06/24 02:41:07;;;;;;;5.28;2.85;;;18.30;99.90;;;;;;4964334;28;20054;-84
2022/06/24 02:43:35;;;;;;;4.82;2.80;;;18.20;99.90;;;;;;4954203;28;20085;-84
2022/06/24 02:46:12;;;;;;;5.13;3.15;;;18.20;99.90;;;;;;4971374;28;20058;-85
2022/06/24 02:48:41;;;;;;;5.05;3.38;;;18.20;99.90;;;;;;4979932;28;20120;-84
2022/06/24 02:51:10;;;;;;;4.07;2.70;;;18.10;99.90;;;;;;4978374;28;20049;-84
2022/06/24 02:53:36;;;;;;;5.93;3.28;;;18.20;99.90;;;;;;4984085;28;20482;-84
2022/06/24 02:56:09;;;;;;;6.63;3.53;;;18.10;99.90;;;;;;4958020;28;20050;-84
2022/06/24 02:58:35;;;;;;;8.68;3.42;;;18.10;99.90;;;;;;4962404;28;20081;-84
2022/06/24 03:01:02;;;;;;;6.85;3.30;;;18.10;99.90;;;;;;4964174;28;20054;-84
2022/06/24 03:03:29;;;;;;;5.68;3.55;;;18.10;99.90;;;;;;4978779;28;20050;-85
2022/06/24 03:05:54;;;;;;;6.72;3.53;;;18.10;99.90;;;;;;4975806;28;20101;-85
2022/06/24 03:08:22;;;;;;;5.93;3.85;;;18.10;99.90;;;;;;4962782;28;20577;-84
2022/06/24 03:10:47;;;;;;;5.72;3.90;;;18.20;99.90;;;;;;4948989;28;20058;-84
2022/06/24 03:13:13;;;;;;;5.07;3.25;;;18.20;99.90;;;;;;4963714;28;20559;-84
2022/06/24 03:15:43;;;;;;;7.57;3.47;;;18.20;99.90;;;;;;4977877;28;20153;-84
2022/06/24 03:18:11;;;;;;;6.07;3.47;;;18.30;99.90;;;;;;4972817;28;20056;-84
2022/06/24 03:20:37;;;;;;;8.20;3.45;;;18.30;99.90;;;;;;4976903;28;20498;-84
2022/06/24 03:23:02;;;;;;;5.85;3.35;;;18.30;99.90;;;;;;4962820;28;20050;-84
2022/06/24 03:25:31;;;;;;;6.05;3.55;;;18.40;99.90;;;;;;4974525;28;20042;-84
2022/06/24 03:27:57;;;;;;;6.85;4.03;;;18.60;99.90;;;;;;4982014;28;20046;-84
2022/06/24 03:30:23;;;;;;;10.15;4.03;;;18.40;99.90;;;;;;4978633;28;20050;-84
2022/06/24 03:32:49;;;;;;;6.47;3.88;;;18.50;99.90;;;;;;4978564;28;20050;-84
2022/06/24 03:35:15;;;;;;;9.55;3.92;;;18.50;99.90;;;;;;4958914;28;20050;-84
2022/06/24 03:37:41;;;;;;;5.60;3.35;;;18.60;99.90;;;;;;4952036;28;20050;-84
2022/06/24 03:40:07;;;;;;;7.32;3.65;;;18.60;99.90;;;;;;4972170;28;20077;-85
2022/06/24 03:42:33;;;;;;;7.35;3.58;;;18.70;99.90;;;;;;4961016;28;20046;-84
2022/06/24 03:44:58;;;;;;;7.90;3.90;;;18.70;99.90;;;;;;4971964;28;20483;-84
2022/06/24 03:47:24;;;;;;;8.00;3.47;;;18.70;99.90;;;;;;4969390;28;20636;-84
2022/06/24 03:49:51;;;;;;;5.57;3.70;;;18.80;99.90;;;;;;4973285;28;20059;-84
2022/06/24 03:52:19;;;;;;;7.35;3.30;;;18.80;99.90;;;;;;4948754;28;20086;-83
2022/06/24 03:54:46;;;;;;;5.63;3.33;;;18.80;99.90;;;;;;4958758;28;20157;-84
2022/06/24 03:57:12;;;;;;;5.20;3.30;;;18.80;99.90;;;;;;4977145;28;20100;-84
2022/06/24 03:59:37;;;;;;;6.72;3.80;;;18.80;99.90;;;;;;4948789;28;20764;-84
2022/06/24 04:02:03;;;;;;;7.70;3.33;;;18.80;99.90;;;;;;4963245;28;20101;-84
2022/06/24 04:04:29;;;;;;;7.57;3.67;;;18.80;99.90;;;;;;4960046;28;20038;-84
2022/06/24 04:06:55;;;;;;;4.88;3.67;;;18.80;99.90;;;;;;4976365;28;20050;-84
2022/06/24 04:09:22;;;;;;;6.00;3.75;;;18.90;99.90;;;;;;4951253;28;20149;-84
2022/06/24 04:11:49;;;;;;;7.30;3.78;;;18.80;99.90;;;;;;4977674;28;20046;-84
2022/06/24 04:15:13;;;;;;;5.20;3.70;;;18.90;99.90;;;;;;4941322;28;20082;-84
2022/06/24 04:17:02;;;;;;;7.32;3.47;;;18.80;99.90;;;;;;4978121;28;20057;-84
2022/06/24 04:19:27;;;;;;;5.75;3.60;;;18.90;99.90;;;;;;4961638;28;20054;-85
2022/06/24 04:21:53;;;;;;;8.95;4.10;;;19.00;99.90;;;;;;4973642;28;20051;-84
2022/06/24 04:24:19;;;;;;;7.32;4.07;;;19.20;99.90;;;;;;4971765;28;20049;-85
2022/06/24 04:26:44;;;;;;;5.85;4.00;;;19.00;99.90;;;;;;4973406;28;20524;-84
2022/06/24 04:29:10;;;;;;;8.65;4.18;;;19.00;99.90;;;;;;4974393;28;20082;-85
2022/06/24 04:31:35;;;;;;;5.63;4.05;;;18.90;99.90;;;;;;4980729;28;20070;-84
2022/06/24 04:34:01;;;;;;;5.35;3.72;;;19.10;99.90;;;;;;4955773;28;20046;-85
2022/06/24 04:36:26;;;;;;;5.43;3.85;;;19.10;99.90;;;;;;4968314;28;20082;-85
2022/06/24 04:38:52;;;;;;;7.05;3.88;;;19.10;99.90;;;;;;4963213;28;20133;-84
2022/06/24 04:41:18;;;;;;;7.93;4.20;;;19.20;99.90;;;;;;4978966;28;20057;-85
2022/06/24 04:43:43;;;;;;;6.78;4.35;;;19.40;99.90;;;;;;4963051;28;20149;-85
2022/06/24 04:46:09;;;;;;;7.53;3.60;;;19.20;99.90;;;;;;4978642;28;20043;-84
2022/06/24 04:48:36;;;;;;;7.15;3.72;;;19.20;99.90;;;;;;4978104;28;20063;-83
2022/06/24 04:51:02;;;;;;;6.22;4.03;;;19.30;99.90;;;;;;4970876;28;20050;-83
2022/06/24 04:53:29;;;;;;;6.88;4.00;;;19.30;99.90;;;;;;4963787;28;20053;-83
2022/06/24 04:55:55;;;;;;;5.78;4.38;;;19.30;99.90;;;;;;4974916;28;20217;-82
2022/06/24 04:58:20;;;;;;;5.90;3.97;;;19.40;99.90;;;;;;4958332;28;20046;-85
2022/06/24 05:00:46;;;;;;;7.57;3.70;;;19.40;99.90;;;;;;4958700;28;20052;-84
2022/06/24 05:03:11;;;;;;;7.32;4.07;;;19.50;99.90;;;;;;4966904;28;20161;-83
2022/06/24 05:05:37;;;;;;;5.85;3.83;;;19.50;99.90;;;;;;4975849;28;22194;-84
2022/06/24 05:08:03;;;;;;;8.35;4.15;;;19.60;99.90;;;;;;4976612;28;20166;-80
2022/06/24 05:10:28;;;;;;;9.02;3.72;;;19.60;99.90;;;;;;4968876;28;20043;-81
2022/06/24 05:12:54;;;;;;;9.63;4.45;;;19.60;99.90;;;;;;4960251;28;20094;-79
2022/06/24 05:15:20;;;;;;;9.05;4.00;;;19.60;99.90;;;;;;4960598;28;20799;-80
2022/06/24 05:17:45;;;;;;;5.78;3.58;;;19.60;99.90;;;;;;4952189;28;20043;-84
2022/06/24 05:20:11;;;;;;;6.28;3.85;;;19.70;99.90;;;;;;4948515;28;20050;-84
2022/06/24 05:22:38;;;;;;;6.30;3.90;;;19.80;99.90;;;;;;4969259;28;20046;-84
2022/06/24 05:25:07;;;;;;;4.88;3.35;;;19.80;99.90;;;;;;4970816;28;20056;-84
2022/06/24 05:27:32;;;;;;;6.10;4.20;;;19.90;99.90;;;;;;4973711;28;20138;-83
2022/06/24 05:29:58;;;;;;;9.38;3.58;;;19.90;99.90;;;;;;4956601;28;21534;-83
2022/06/24 05:32:24;;;;;;;6.45;3.75;;;19.90;99.90;;;;;;4948220;28;20077;-83
2022/06/24 05:34:49;;;;;;;6.28;4.95;;;20.00;99.90;;;;;;4952527;28;20054;-83
2022/06/24 05:37:15;;;;;;;6.75;4.18;;;19.90;99.90;;;;;;4959857;28;20772;-84
2022/06/24 05:39:40;;;;;;;7.88;4.68;;;20.10;99.90;;;;;;4978227;28;20058;-80
2022/06/24 05:42:06;;;;;;;10.43;4.68;;;20.20;99.90;;;;;;4950807;28;20460;-83
2022/06/24 05:44:32;;;;;;;7.68;5.50;;;20.00;99.90;;;;;;4955463;28;20089;-83
2022/06/24 05:46:57;;;;;;;9.93;6.45;;;20.20;99.90;;;;;;4957927;28;20054;-83
2022/06/24 05:49:23;;;;;;;7.88;6.20;;;20.10;99.90;;;;;;4960661;28;20876;-83
2022/06/24 05:51:49;;;;;;;9.70;6.97;;;20.20;99.90;;;;;;4957711;28;20064;-83
2022/06/24 05:56:58;;;;;;;11.57;6.93;;;20.10;99.90;;;;;;4977160;28;20058;-86
2022/06/24 05:59:24;;;;;;;11.57;6.45;;;20.10;99.90;;;;;;4969276;28;20054;-88
2022/06/24 06:01:49;;;;;;;9.57;6.60;;;20.10;99.90;;;;;;4954570;28;20081;-87
2022/06/24 06:04:15;;;;;;;14.32;8.05;;;20.10;99.90;;;;;;4957639;28;20128;-84
2022/06/24 06:06:41;;;;;;;22.45;10.80;;;20.10;99.90;;;;;;4957921;28;20138;-83
2022/06/24 06:09:07;;;;;;;25.58;13.40;;;20.10;99.90;;;;;;4977713;28;20827;-83
2022/06/24 06:11:33;;;;;;;22.63;13.00;;;20.00;99.90;;;;;;4971108;28;20153;-81
2022/06/24 06:13:58;;;;;;;26.73;13.77;;;19.90;99.90;;;;;;4972517;28;20038;-82
2022/06/24 06:16:26;;;;;;;25.15;14.27;;;19.80;99.90;;;;;;4971328;28;20051;-82
2022/06/24 06:18:52;;;;;;;22.95;14.80;;;20.10;99.90;;;;;;4961142;28;20770;-83
2022/06/24 06:21:17;;;;;;;24.25;13.95;;;19.70;99.90;;;;;;4963703;28;20125;-82
2022/06/24 06:23:43;;;;;;;22.23;14.27;;;19.80;99.90;;;;;;4973121;28;20681;-81
2022/06/24 06:26:10;;;;;;;23.35;13.50;;;19.80;99.90;;;;;;4949328;28;20042;-81
2022/06/24 06:28:37;;;;;;;18.85;13.43;;;19.60;99.90;;;;;;4958176;28;20054;-82
2022/06/24 06:31:03;;;;;;;20.73;14.88;;;19.80;99.90;;;;;;4978607;28;20799;-81
2022/06/24 06:33:32;;;;;;;19.70;14.00;;;19.90;99.90;;;;;;4974798;28;20579;-82
2022/06/24 06:36:09;;;;;;;20.25;14.95;;;19.80;99.90;;;;;;4952882;28;20050;-82
2022/06/24 06:38:35;;;;;;;21.02;14.55;;;20.10;99.90;;;;;;4980860;28;20074;-86
2022/06/24 06:41:02;;;;;;;19.10;14.32;;;20.00;99.90;;;;;;4961658;28;20050;-83
2022/06/24 06:43:28;;;;;;;18.63;15.80;;;20.00;99.90;;;;;;4978533;28;20045;-84
2022/06/24 06:45:55;;;;;;;23.08;15.15;;;20.10;99.90;;;;;;4960678;28;20074;-84
2022/06/24 06:48:21;;;;;;;19.85;14.30;;;20.10;99.90;;;;;;4974099;28;20162;-84
2022/06/24 06:50:47;;;;;;;21.98;13.60;;;20.10;99.90;;;;;;4982205;28;20739;-84
2022/06/24 06:53:13;;;;;;;18.92;14.35;;;20.20;99.90;;;;;;4955963;28;20111;-84
2022/06/24 06:55:39;;;;;;;18.33;14.57;;;20.20;99.90;;;;;;4963802;28;20050;-84
2022/06/24 06:58:05;;;;;;;21.80;14.85;;;20.20;99.90;;;;;;4957137;28;20059;-85
2022/06/24 07:00:30;;;;;;;25.45;15.32;;;20.30;99.90;;;;;;4981481;28;20050;-85
2022/06/24 07:02:56;;;;;;;23.27;15.35;;;20.30;99.90;;;;;;4977775;28;20084;-85
2022/06/24 07:05:21;;;;;;;15.75;11.50;;;20.10;99.90;;;;;;4972838;28;20047;-83
2022/06/24 07:07:48;;;;;;;18.50;11.70;;;20.00;99.90;;;;;;4963984;28;20050;-79
2022/06/24 07:10:13;;;;;;;14.82;9.45;;;19.90;99.90;;;;;;4981197;28;20058;-78
2022/06/24 07:12:39;;;;;;;14.27;9.23;;;20.00;99.90;;;;;;4968244;28;20049;-79
2022/06/24 07:15:06;;;;;;;16.63;10.52;;;19.90;99.90;;;;;;4968581;28;20178;-79
2022/06/24 07:17:32;;;;;;;15.88;11.20;;;19.80;99.90;;;;;;4978353;28;20607;-78
2022/06/24 07:19:57;;;;;;;17.90;13.02;;;19.80;99.90;;;;;;4977316;28;20046;-78
2022/06/24 07:22:23;;;;;;;17.33;12.38;;;19.90;99.90;;;;;;4974046;28;20494;-79
2022/06/24 07:24:49;;;;;;;17.83;11.82;;;20.10;99.90;;;;;;4977630;28;20054;-78
2022/06/24 07:27:14;;;;;;;16.73;10.95;;;19.80;99.90;;;;;;4981081;28;20053;-79
2022/06/24 07:29:40;;;;;;;19.42;12.80;;;19.70;99.90;;;;;;4977429;28;20074;-80
2022/06/24 07:32:07;;;;;;;21.02;13.60;;;19.80;99.90;;;;;;4958704;28;20042;-80
2022/06/24 07:34:33;;;;;;;18.58;13.15;;;19.80;99.90;;;;;;4973228;28;20112;-78
2022/06/24 07:37:00;;;;;;;19.40;12.52;;;19.80;99.90;;;;;;4953952;28;20451;-79
2022/06/24 07:39:27;;;;;;;18.42;12.93;;;19.90;99.90;;;;;;4970451;28;20112;-78
2022/06/24 07:41:53;;;;;;;16.30;10.90;;;19.90;99.90;;;;;;4977642;28;20501;-78
2022/06/24 07:44:22;;;;;;;12.90;9.82;;;19.90;99.90;;;;;;4978067;28;20859;-78
2022/06/24 07:46:48;;;;;;;14.32;9.02;;;19.90;99.90;;;;;;4978352;28;20161;-78
2022/06/24 07:49:14;;;;;;;13.18;9.52;;;19.90;99.90;;;;;;4944722;28;20789;-79
2022/06/24 07:51:40;;;;;;;12.45;8.38;;;20.00;99.90;;;;;;4977571;28;20085;-78
2022/06/24 07:54:07;;;;;;;13.43;9.23;;;19.90;99.90;;;;;;4960123;28;20045;-79
2022/06/24 07:56:57;;;;;;;15.15;8.90;;;19.90;99.90;;;;;;4959573;28;20073;-79
2022/06/24 07:59:32;;;;;;;12.82;8.63;;;19.90;99.90;;;;;;4962148;28;20470;-82
2022/06/24 08:01:59;;;;;;;11.13;8.25;;;20.00;99.90;;;;;;4975751;28;20149;-79
2022/06/24 08:04:26;;;;;;;10.13;6.53;;;20.00;99.90;;;;;;4976050;28;20057;-79
2022/06/24 08:06:52;;;;;;;10.70;6.70;;;19.90;99.90;;;;;;4956750;28;20470;-78
2022/06/24 08:09:23;;;;;;;11.25;7.75;;;19.90;99.90;;;;;;4978605;28;20509;-78
2022/06/24 08:11:49;;;;;;;12.02;8.50;;;20.00;99.90;;;;;;4976118;28;20112;-78
2022/06/24 08:14:16;;;;;;;11.68;6.72;;;20.10;99.90;;;;;;4976959;28;20076;-78
2022/06/24 08:16:42;;;;;;;9.30;7.32;;;20.10;99.90;;;;;;4979743;28;20124;-78
2022/06/24 08:19:08;;;;;;;9.80;7.72;;;20.20;99.90;;;;;;4979333;28;20042;-78
2022/06/24 08:21:33;;;;;;;9.80;7.55;;;20.20;99.90;;;;;;4977681;28;20050;-78
2022/06/24 08:23:59;;;;;;;10.18;7.10;;;20.30;99.90;;;;;;4959162;28;20057;-78
2022/06/24 08:26:25;;;;;;;11.13;6.43;;;20.40;99.90;;;;;;4954775;28;20061;-78
2022/06/24 08:28:51;;;;;;;7.63;5.72;;;20.50;99.90;;;;;;4979394;28;20082;-77
2022/06/24 08:31:16;;;;;;;10.07;5.35;;;20.50;99.90;;;;;;4975442;28;20152;-77
2022/06/24 08:33:42;;;;;;;9.48;5.43;;;20.50;99.90;;;;;;4979682;28;20046;-77
2022/06/24 08:36:09;;;;;;;7.95;5.45;;;20.60;99.90;;;;;;4975816;28;20046;-78
2022/06/24 08:38:34;;;;;;;6.93;5.38;;;20.60;99.90;;;;;;4976032;28;20042;-78
2022/06/24 08:41:02;;;;;;;8.38;5.72;;;20.70;99.90;;;;;;4969676;28;20050;-78
2022/06/24 08:43:33;;;;;;;7.60;5.70;;;20.80;99.90;;;;;;4961040;28;20050;-78
2022/06/24 08:46:00;;;;;;;9.50;6.05;;;21.00;99.90;;;;;;4979085;28;20145;-78
2022/06/24 08:48:27;;;;;;;7.63;5.28;;;21.10;99.90;;;;;;4971426;28;20054;-78
2022/06/24 08:50:53;;;;;;;7.85;5.43;;;21.20;99.90;;;;;;4977826;28;20600;-78
2022/06/24 08:53:21;;;;;;;9.43;5.30;;;21.30;99.90;;;;;;4978627;28;20054;-78
2022/06/24 08:55:50;;;;;;;8.57;5.20;;;21.20;99.90;;;;;;4961450;28;20054;-78
2022/06/24 08:58:17;;;;;;;7.93;5.22;;;21.20;99.90;;;;;;4967267;28;20046;-78
2022/06/24 09:00:43;;;;;;;8.07;5.65;;;21.10;99.90;;;;;;4947641;28;20053;-78
2022/06/24 09:03:10;;;;;;;9.75;5.72;;;21.10;99.90;;;;;;4967936;28;20057;-77
2022/06/24 09:05:36;;;;;;;9.80;5.47;;;21.00;99.90;;;;;;4960881;28;20473;-77
2022/06/24 09:08:10;;;;;;;7.50;5.65;;;20.90;99.90;;;;;;4978465;28;20089;-78
2022/06/24 09:10:38;;;;;;;9.05;5.43;;;20.90;99.90;;;;;;4976967;28;20576;-78
2022/06/24 09:13:05;;;;;;;13.68;5.40;;;20.80;99.90;;;;;;4958519;28;21091;-78
2022/06/24 09:15:32;;;;;;;8.90;5.70;;;20.80;99.90;;;;;;4977368;28;20062;-78
2022/06/24 09:17:59;;;;;;;9.43;5.95;;;20.80;99.90;;;;;;4976493;28;20153;-78
2022/06/24 09:20:29;;;;;;;7.35;5.25;;;20.70;99.90;;;;;;4951277;28;20054;-77
2022/06/24 09:23:05;;;;;;;8.95;5.68;;;20.80;99.90;;;;;;4949568;28;20177;-78
2022/06/24 09:25:41;;;;;;;8.88;6.35;;;20.70;99.90;;;;;;4962095;28;20161;-78
2022/06/24 09:28:07;;;;;;;9.35;6.30;;;20.70;99.90;;;;;;4976179;28;20683;-78
2022/06/24 09:30:36;;;;;;;7.95;6.05;;;20.70;99.90;;;;;;4964767;28;20501;-78
2022/06/24 09:33:03;;;;;;;7.80;5.22;;;20.80;99.90;;;;;;4967624;28;20078;-77
2022/06/24 09:35:29;;;;;;;9.13;5.55;;;20.70;99.90;;;;;;4974529;28;20054;-77
2022/06/24 09:37:54;;;;;;;7.78;5.72;;;20.70;99.90;;;;;;4957604;28;20065;-78
2022/06/24 09:40:32;;;;;;;7.40;5.60;;;20.70;99.90;;;;;;4961177;28;20049;-77
2022/06/24 09:43:00;;;;;;;9.13;5.80;;;20.70;99.90;;;;;;4977557;28;20039;-77
2022/06/24 09:45:47;;;;;;;8.13;5.93;;;20.60;99.90;;;;;;4978134;28;20047;-77
2022/06/24 09:48:27;;;;;;;7.15;5.13;;;20.60;99.90;;;;;;4959763;28;20134;-78
2022/06/24 09:51:01;;;;;;;10.52;5.55;;;20.50;99.90;;;;;;4979299;28;20086;-77
2022/06/24 09:53:29;;;;;;;8.80;5.65;;;20.50;99.90;;;;;;4980984;28;20046;-78
2022/06/24 09:55:56;;;;;;;8.13;5.53;;;20.50;99.90;;;;;;4981448;28;20073;-78
2022/06/24 09:58:22;;;;;;;10.55;6.43;;;20.50;99.90;;;;;;4964300;28;20505;-78
2022/06/24 10:00:50;;;;;;;19.00;5.78;;;20.50;99.90;;;;;;4982351;28;20058;-78
2022/06/24 10:03:16;;;;;;;10.60;6.15;;;20.50;99.90;;;;;;4963904;28;20051;-78
2022/06/24 10:05:44;;;;;;;8.20;5.38;;;20.50;99.90;;;;;;4947021;28;20047;-78
2022/06/24 10:08:15;;;;;;;8.15;5.85;;;20.40;99.90;;;;;;4964598;28;20051;-78
2022/06/24 10:10:58;;;;;;;6.65;4.80;;;20.40;99.90;;;;;;4958114;28;20046;-79
2022/06/24 10:13:29;;;;;;;9.50;5.28;;;20.30;99.90;;;;;;4983246;28;20065;-78
2022/06/24 10:16:01;;;;;;;9.63;5.20;;;20.20;99.90;;;;;;4982786;28;20051;-78
2022/06/24 10:18:42;;;;;;;11.77;6.10;;;20.10;99.90;;;;;;4969090;28;20082;-78
2022/06/24 10:21:09;;;;;;;14.43;6.95;;;20.00;99.90;;;;;;4950917;28;20043;-79
2022/06/24 10:23:47;;;;;;;19.08;7.25;;;19.90;99.90;;;;;;4977500;28;20054;-79
2022/06/24 10:26:14;;;;;;;11.93;6.20;;;19.70;99.90;;;;;;4963358;28;20051;-78
2022/06/24 10:29:04;;;;;;;11.48;6.68;;;19.60;99.90;;;;;;4959833;28;20046;-78
2022/06/24 10:31:42;;;;;;;10.93;6.82;;;19.60;99.90;;;;;;4962866;28;20121;-78
2022/06/24 10:34:12;;;;;;;9.13;6.38;;;19.60;99.90;;;;;;4945181;28;20471;-78
2022/06/24 10:36:38;;;;;;;10.70;6.65;;;19.50;99.90;;;;;;4963652;28;20451;-78
2022/06/24 10:39:14;;;;;;;11.73;6.80;;;19.40;99.90;;;;;;4970205;28;20053;-78
2022/06/24 10:41:41;;;;;;;8.52;5.60;;;19.40;99.90;;;;;;4962659;28;20061;-78
2022/06/24 10:44:22;;;;;;;11.45;5.30;;;19.30;99.90;;;;;;4973410;28;20051;-78
2022/06/24 10:47:08;;;;;;;8.95;5.07;;;19.20;99.90;;;;;;4958644;28;20046;-78
2022/06/24 10:49:52;;;;;;;6.57;4.60;;;19.10;99.90;;;;;;4932158;28;20101;-78
2022/06/24 10:52:38;;;;;;;7.90;4.55;;;19.10;99.90;;;;;;4963894;28;20086;-78
2022/06/24 10:57:52;;;;;;;6.80;3.90;;;19.00;99.90;;;;;;4962769;28;20059;-78
2022/06/24 11:00:21;;;;;;;6.53;3.53;;;19.00;99.90;;;;;;4961750;28;20058;-78
2022/06/24 11:02:56;;;;;;;7.78;3.55;;;18.90;99.90;;;;;;4964955;28;20050;-78
2022/06/24 11:05:30;;;;;;;4.43;2.80;;;18.90;99.90;;;;;;4968066;28;20050;-78
2022/06/24 11:07:55;;;;;;;4.30;2.53;;;18.90;99.90;;;;;;4945607;28;20528;-78
2022/06/24 11:10:30;;;;;;;6.38;3.38;;;18.90;99.90;;;;;;4960538;28;20051;-78
2022/06/24 11:12:58;;;;;;;4.95;2.30;;;18.80;99.90;;;;;;4962623;28;20063;-78
2022/06/24 11:15:46;;;;;;;6.45;2.85;;;18.70;99.90;;;;;;4971353;28;20050;-78
2022/06/24 11:18:29;;;;;;;7.97;2.80;;;18.70;99.90;;;;;;4981446;28;20047;-78
2022/06/24 11:21:01;;;;;;;4.63;2.50;;;18.70;99.90;;;;;;4961699;28;20047;-78
2022/06/24 11:23:34;;;;;;;4.38;2.15;;;18.60;99.90;;;;;;4962315;28;20038;-78
2022/06/24 11:26:03;;;;;;;3.90;2.08;;;18.60;99.90;;;;;;4960226;28;20050;-78
2022/06/24 11:28:33;;;;;;;6.18;2.40;;;18.60;99.90;;;;;;4981345;28;20516;-78
2022/06/24 11:31:18;;;;;;;5.07;2.90;;;18.60;99.90;;;;;;4969786;28;20073;-78
2022/06/24 11:33:49;;;;;;;3.75;2.10;;;18.60;99.90;;;;;;4968832;28;20104;-78
2022/06/24 11:36:15;;;;;;;3.92;2.13;;;18.50;99.90;;;;;;4943880;28;20757;-77
2022/06/24 11:38:48;;;;;;;5.03;2.35;;;18.60;99.90;;;;;;4947831;28;20051;-78
2022/06/24 11:41:25;;;;;;;5.90;2.43;;;18.50;99.90;;;;;;4958894;28;20042;-78
2022/06/24 11:43:51;;;;;;;4.25;2.22;;;18.60;99.90;;;;;;4969029;28;20089;-77
2022/06/24 11:46:17;;;;;;;5.68;2.20;;;18.60;99.90;;;;;;4974367;28;20413;-78
2022/06/24 11:48:43;;;;;;;4.25;2.45;;;18.60;99.90;;;;;;4961682;28;20050;-77
2022/06/24 11:51:19;;;;;;;4.47;2.47;;;18.70;99.90;;;;;;4976660;28;20042;-77
2022/06/24 11:54:05;;;;;;;5.07;2.17;;;18.80;99.90;;;;;;4979945;28;20121;-77
2022/06/24 11:56:33;;;;;;;4.22;2.38;;;18.80;99.90;;;;;;4956542;28;20097;-77
2022/06/24 11:58:59;;;;;;;4.03;2.45;;;18.90;99.90;;;;;;4952186;28;20068;-77
2022/06/24 12:01:29;;;;;;;6.00;2.78;;;19.00;99.90;;;;;;4976554;28;20101;-78
2022/06/24 12:03:58;;;;;;;8.57;2.95;;;19.20;99.90;;;;;;4969519;28;20046;-78
2022/06/24 12:06:24;;;;;;;4.97;2.92;;;19.30;99.90;;;;;;4980341;28;20157;-77
2022/06/24 12:08:51;;;;;;;5.35;2.70;;;19.50;99.90;;;;;;4976499;28;20042;-77
2022/06/24 12:11:20;;;;;;;3.65;2.75;;;19.30;99.90;;;;;;4976283;28;20074;-78
2022/06/24 12:14:02;;;;;;;5.50;2.70;;;19.50;99.90;;;;;;4953100;28;20565;-78
2022/06/24 12:16:48;;;;;;;5.20;2.88;;;19.50;99.90;;;;;;4978475;28;20102;-77
2022/06/24 12:19:14;;;;;;;4.68;2.95;;;19.50;99.90;;;;;;4963871;28;20122;-78
2022/06/24 12:21:40;;;;;;;7.22;3.15;;;19.50;99.90;;;;;;4978540;28;20780;-78
2022/06/24 12:24:25;;;;;;;6.43;3.00;;;19.70;99.90;;;;;;4970326;28;20073;-77
2022/06/24 12:26:53;;;;;;;5.70;2.90;;;19.60;99.90;;;;;;4974011;28;20061;-78
2022/06/24 12:29:33;;;;;;;5.25;3.30;;;19.90;99.90;;;;;;4979001;28;20042;-78
2022/06/24 12:32:01;;;;;;;6.63;3.47;;;19.70;99.90;;;;;;4960529;28;21014;-77
2022/06/24 12:34:29;;;;;;;5.57;3.20;;;19.70;99.90;;;;;;4978404;28;20137;-77
2022/06/24 12:36:57;;;;;;;6.35;3.25;;;19.90;99.90;;;;;;4977027;28;20109;-77
2022/06/24 12:39:43;;;;;;;7.28;3.58;;;20.00;99.90;;;;;;4976869;28;20701;-77
2022/06/24 12:42:14;;;;;;;5.50;3.60;;;20.20;99.90;;;;;;4959826;28;20038;-77
2022/06/24 12:44:45;;;;;;;6.20;3.88;;;20.40;99.90;;;;;;4942189;28;20078;-77
2022/06/24 12:52:44;;;;;;;6.78;4.18;;;21.00;99.90;;;;;;4963168;28;20049;-77
2022/06/24 12:55:13;;;;;;;6.95;4.88;;;21.10;99.90;;;;;;4964758;28;20051;-78
2022/06/24 12:57:39;;;;;;;8.10;5.35;;;21.20;99.90;;;;;;4975908;28;20050;-78
2022/06/24 13:00:10;;;;;;;9.52;5.88;;;21.20;99.90;;;;;;4978684;28;20222;-77
2022/06/24 13:02:56;;;;;;;9.13;6.07;;;21.30;99.90;;;;;;4975252;28;20754;-78
2022/06/24 13:05:29;;;;;;;7.75;5.45;;;21.40;99.90;;;;;;4963862;28;20053;-78